createdAt,value
2022-11-14T00:01:46.858Z,25.60
2022-11-14T00:04:15.893Z,25.60
2022-11-14T00:06:45.011Z,25.60
2022-11-14T00:09:14.280Z,25.70
2022-11-14T00:11:43.371Z,25.70
2022-11-14T00:14:13.277Z,25.70
2022-11-14T00:16:42.296Z,25.80
2022-11-14T00:19:11.447Z,25.80
2022-11-14T00:21:40.957Z,25.90
2022-11-14T00:24:10.176Z,25.90
2022-11-14T00:26:39.221Z,25.90
2022-11-14T00:29:08.349Z,26.00
2022-11-14T00:31:37.396Z,26.00
2022-11-14T00:34:06.746Z,26.10
2022-11-14T00:36:38.896Z,26.10
2022-11-14T00:39:08.063Z,26.20
2022-11-14T00:41:37.102Z,26.20
2022-11-14T00:44:06.386Z,26.20
2022-11-14T00:46:36.494Z,26.20
2022-11-14T00:49:05.645Z,26.30
2022-11-14T00:51:34.736Z,26.30
2022-11-14T00:54:04.375Z,26.30
2022-11-14T00:56:33.532Z,26.40
2022-11-14T00:59:02.608Z,26.40
2022-11-14T01:01:31.704Z,26.50
2022-11-14T01:04:01.597Z,26.50
2022-11-14T01:06:30.748Z,26.60
2022-11-14T01:08:59.850Z,26.60
2022-11-14T01:11:28.946Z,26.70
2022-11-14T01:13:58.112Z,26.80
2022-11-14T01:16:27.285Z,26.80
2022-11-14T01:18:56.347Z,26.90
2022-11-14T01:21:25.713Z,27.00
2022-11-14T01:23:54.783Z,27.10
2022-11-14T01:26:23.844Z,27.10
2022-11-14T01:28:53.005Z,27.10
2022-11-14T01:31:27.444Z,27.20
2022-11-14T01:33:57.206Z,27.20
2022-11-14T01:36:26.304Z,27.20
2022-11-14T01:38:56.311Z,27.30
2022-11-14T01:41:26.300Z,27.30
2022-11-14T01:43:55.453Z,27.40
2022-11-14T01:46:42.818Z,27.40
2022-11-14T01:49:20.403Z,27.50
2022-11-14T01:52:05.568Z,27.50
2022-11-14T01:54:44.595Z,27.50
2022-11-14T01:57:19.700Z,27.60
2022-11-14T01:59:55.049Z,27.60
2022-11-14T02:02:28.272Z,27.70
2022-11-14T02:05:12.688Z,27.70
2022-11-14T02:07:43.353Z,27.80
2022-11-14T02:10:20.788Z,27.80
2022-11-14T02:12:52.356Z,27.80
2022-11-14T02:15:21.604Z,27.80
2022-11-14T02:17:51.751Z,27.90
2022-11-14T02:20:33.514Z,27.90
2022-11-14T02:23:02.754Z,27.90
2022-11-14T02:25:32.155Z,27.90
2022-11-14T02:28:06.680Z,27.90
2022-11-14T02:30:40.321Z,28.00
2022-11-14T02:33:14.937Z,28.00
2022-11-14T02:35:44.540Z,28.00
2022-11-14T02:38:17.593Z,28.10
2022-11-14T02:40:46.848Z,28.10
2022-11-14T02:43:16.075Z,28.20
2022-11-14T02:45:45.565Z,28.30
2022-11-14T02:48:14.775Z,28.40
2022-11-14T02:50:44.057Z,28.40
2022-11-14T02:53:13.269Z,28.50
2022-11-14T02:55:42.708Z,28.60
2022-11-14T02:58:11.929Z,28.70
2022-11-14T03:01:05.835Z,28.70
2022-11-14T03:03:30.799Z,28.70
2022-11-14T03:06:04.804Z,28.80
2022-11-14T03:08:34.250Z,28.80
2022-11-14T03:11:10.450Z,28.90
2022-11-14T03:13:39.678Z,28.90
2022-11-14T03:16:12.304Z,29.00
2022-11-14T03:18:41.798Z,29.00
2022-11-14T03:21:22.163Z,29.10
2022-11-14T03:23:52.267Z,29.10
2022-11-14T03:26:21.826Z,29.10
2022-11-14T03:28:51.645Z,29.20
2022-11-14T03:31:20.793Z,29.20
2022-11-14T03:33:49.949Z,29.20
2022-11-14T03:36:19.835Z,29.20
2022-11-14T03:38:49.523Z,29.20
2022-11-14T03:41:18.688Z,29.20
2022-11-14T03:43:47.888Z,29.30
2022-11-14T03:46:17.057Z,29.30
2022-11-14T03:48:46.352Z,29.40
2022-11-14T03:51:15.622Z,29.40
2022-11-14T03:53:44.756Z,29.40
2022-11-14T03:56:13.865Z,29.50
2022-11-14T03:58:43.113Z,29.50
2022-11-14T04:01:12.326Z,29.60
2022-11-14T04:03:41.535Z,29.60
2022-11-14T04:06:10.821Z,29.70
2022-11-14T04:08:42.491Z,29.80
2022-11-14T04:11:11.838Z,29.90
2022-11-14T04:13:40.950Z,30.00
2022-11-14T04:16:10.140Z,30.10
2022-11-14T04:18:39.478Z,30.20
2022-11-14T04:21:08.639Z,30.40
2022-11-14T04:23:37.775Z,30.50
2022-11-14T04:26:06.999Z,30.60
2022-11-14T04:28:36.103Z,30.70
2022-11-14T04:31:05.472Z,30.70
2022-11-14T04:33:34.594Z,30.70
2022-11-14T04:36:04.067Z,30.80
2022-11-14T04:38:33.722Z,30.80
2022-11-14T04:41:03.499Z,30.80
2022-11-14T04:43:32.635Z,30.90
2022-11-14T04:46:01.802Z,30.90
2022-11-14T04:48:31.346Z,30.90
2022-11-14T04:51:00.630Z,31.00
2022-11-14T04:53:29.809Z,31.00
2022-11-14T04:55:58.943Z,31.10
2022-11-14T04:58:29.121Z,31.20
2022-11-14T05:00:58.871Z,31.30
2022-11-14T05:03:28.110Z,31.40
2022-11-14T05:06:02.296Z,31.50
2022-11-14T05:08:31.908Z,31.60
2022-11-14T05:11:01.377Z,31.70
2022-11-14T05:13:31.200Z,31.80
2022-11-14T05:16:03.744Z,31.90
2022-11-14T05:18:33.028Z,32.00
2022-11-14T05:21:03.299Z,32.10
2022-11-14T05:23:33.149Z,32.20
2022-11-14T05:26:11.139Z,32.30
2022-11-14T05:28:40.529Z,32.40
2022-11-14T05:31:23.073Z,32.50
2022-11-14T05:33:52.615Z,32.60
2022-11-14T05:36:21.945Z,32.70
2022-11-14T05:38:51.300Z,32.80
2022-11-14T05:41:21.512Z,32.80
2022-11-14T05:43:50.615Z,32.80
2022-11-14T05:46:19.759Z,32.80
2022-11-14T05:48:48.945Z,33.00
2022-11-14T05:51:18.082Z,33.00
2022-11-14T05:53:47.268Z,33.10
2022-11-14T05:56:16.703Z,33.20
2022-11-14T05:58:45.888Z,33.30
2022-11-14T06:01:20.945Z,33.40
2022-11-14T06:03:51.263Z,33.50
2022-11-14T06:06:24.105Z,33.50
2022-11-14T06:08:54.555Z,33.60
2022-11-14T06:11:24.135Z,33.70
2022-11-14T06:13:54.665Z,33.70
2022-11-14T06:16:24.003Z,33.70
2022-11-14T06:18:56.344Z,33.60
2022-11-14T06:21:27.703Z,33.60
2022-11-14T06:23:56.898Z,33.60
2022-11-14T06:26:32.855Z,33.60
2022-11-14T06:29:02.391Z,33.60
2022-11-14T06:31:31.645Z,33.70
2022-11-14T06:34:01.106Z,33.70
2022-11-14T06:36:31.919Z,33.70
2022-11-14T06:39:02.171Z,33.70
2022-11-14T06:41:31.349Z,33.70
2022-11-14T06:44:00.422Z,33.70
2022-11-14T06:46:29.607Z,33.80
2022-11-14T06:48:58.701Z,33.80
2022-11-14T06:51:27.912Z,33.90
2022-11-14T06:53:57.075Z,33.90
2022-11-14T06:56:26.210Z,33.90
2022-11-14T06:58:55.316Z,34.00
2022-11-14T07:01:29.662Z,33.90
2022-11-14T07:04:03.235Z,33.80
2022-11-14T07:06:32.906Z,33.70
2022-11-14T07:09:02.011Z,33.50
2022-11-14T07:11:33.042Z,33.40
2022-11-14T07:14:04.322Z,33.40
2022-11-14T07:16:37.016Z,33.40
2022-11-14T07:19:10.723Z,33.40
2022-11-14T07:21:40.841Z,33.50
2022-11-14T07:24:10.281Z,33.60
2022-11-14T07:26:39.540Z,33.70
2022-11-14T07:29:08.720Z,33.80
2022-11-14T07:31:37.747Z,33.80
2022-11-14T07:34:07.118Z,33.90
2022-11-14T07:36:36.185Z,33.80
2022-11-14T07:39:06.544Z,33.70
2022-11-14T07:41:35.784Z,33.70
2022-11-14T07:44:05.015Z,33.50
2022-11-14T07:46:34.207Z,33.40
2022-11-14T07:49:03.453Z,33.30
2022-11-14T07:51:32.645Z,33.20
2022-11-14T07:54:01.756Z,33.10
2022-11-14T07:56:32.098Z,33.00
2022-11-14T07:59:01.256Z,32.90
2022-11-14T08:01:30.473Z,32.80
2022-11-14T08:03:59.625Z,32.80
2022-11-14T08:06:29.602Z,32.70
2022-11-14T08:08:58.720Z,32.50
2022-11-14T08:11:45.909Z,32.40
2022-11-14T08:14:15.059Z,32.20
2022-11-14T08:16:44.227Z,32.00
2022-11-14T08:19:13.376Z,31.90
2022-11-14T08:21:42.763Z,31.70
2022-11-14T08:24:12.138Z,31.50
2022-11-14T08:26:41.334Z,31.30
2022-11-14T08:29:10.464Z,31.10
2022-11-14T08:31:39.665Z,30.90
2022-11-14T08:34:09.073Z,30.70
2022-11-14T08:36:38.241Z,30.60
2022-11-14T08:39:08.273Z,30.50
2022-11-14T08:41:37.407Z,30.30
2022-11-14T08:44:06.884Z,30.20
2022-11-14T08:46:36.069Z,30.10
2022-11-14T08:49:05.191Z,30.10
2022-11-14T08:51:36.428Z,30.00
2022-11-14T08:54:06.068Z,30.00
2022-11-14T08:56:35.284Z,29.90
2022-11-14T08:59:08.973Z,30.00
2022-11-14T09:01:38.274Z,30.00
2022-11-14T09:04:07.594Z,30.10
2022-11-14T09:06:36.933Z,30.20
2022-11-14T09:09:06.133Z,30.20
2022-11-14T09:11:35.252Z,30.30
2022-11-14T09:14:04.541Z,30.40
2022-11-14T09:16:34.822Z,30.50
2022-11-14T09:19:03.931Z,30.60
2022-11-14T09:21:33.010Z,30.60
2022-11-14T09:24:02.247Z,30.70
2022-11-14T09:26:31.358Z,30.80
2022-11-14T09:29:01.825Z,30.80
2022-11-14T09:31:31.135Z,30.80
2022-11-14T09:34:00.267Z,30.80
2022-11-14T09:36:29.468Z,30.70
2022-11-14T09:38:59.813Z,30.60
2022-11-14T09:41:52.584Z,30.60
2022-11-14T09:45:05.866Z,30.50
2022-11-14T09:48:15.574Z,30.40
2022-11-14T09:51:15.416Z,30.40
2022-11-14T09:54:07.668Z,30.40
2022-11-14T09:56:36.942Z,30.40
2022-11-14T09:59:13.549Z,30.30
2022-11-14T10:02:15.429Z,30.30
2022-11-14T10:05:05.727Z,30.30
2022-11-14T10:08:06.645Z,30.30
2022-11-14T10:10:55.909Z,30.30
2022-11-14T10:13:43.002Z,30.20
2022-11-14T10:17:09.238Z,30.20
2022-11-14T10:20:03.375Z,30.20
2022-11-14T10:23:23.073Z,30.10
2022-11-14T10:26:09.972Z,30.10
2022-11-14T10:29:42.049Z,30.00
2022-11-14T10:32:47.186Z,29.90
2022-11-14T10:35:51.456Z,29.90
2022-11-14T10:38:46.865Z,29.80
2022-11-14T10:41:34.750Z,29.70
2022-11-14T10:44:10.055Z,29.60
2022-11-14T10:46:52.422Z,29.50
2022-11-14T10:49:27.669Z,29.40
2022-11-14T10:52:03.855Z,29.30
2022-11-14T10:54:43.288Z,29.20
2022-11-14T10:57:24.293Z,29.10
2022-11-14T10:59:54.814Z,28.90
2022-11-14T11:02:24.630Z,28.80
2022-11-14T11:04:53.914Z,28.80
2022-11-14T11:07:46.411Z,28.70
2022-11-14T11:10:43.748Z,28.60
2022-11-14T11:13:32.704Z,28.50
2022-11-14T11:16:06.192Z,28.40
2022-11-14T11:18:38.315Z,28.40
2022-11-14T11:21:15.512Z,28.30
2022-11-14T11:23:59.136Z,28.20
2022-11-14T11:26:31.890Z,28.20
2022-11-14T11:29:13.334Z,28.20
2022-11-14T11:31:54.060Z,28.10
2022-11-14T11:34:29.919Z,28.10
2022-11-14T11:37:22.055Z,28.00
2022-11-14T11:39:58.447Z,28.00
2022-11-14T11:45:52.307Z,27.90
2022-11-14T11:48:25.039Z,27.80
2022-11-14T11:50:54.222Z,27.70
2022-11-14T11:53:51.233Z,27.70
2022-11-14T11:56:28.964Z,27.70
2022-11-14T11:59:24.375Z,27.70
2022-11-14T12:01:55.203Z,27.70
2022-11-14T12:04:24.939Z,27.60
2022-11-14T12:07:11.870Z,27.70
2022-11-14T12:10:09.447Z,27.60
2022-11-14T12:12:46.269Z,27.60
2022-11-14T12:16:01.429Z,27.50
2022-11-14T12:18:37.202Z,27.50
2022-11-14T12:21:40.007Z,27.50
2022-11-14T12:24:54.213Z,27.40
2022-11-14T12:27:53.274Z,27.40
2022-11-14T12:30:26.084Z,27.40
2022-11-14T12:33:02.041Z,27.40
2022-11-14T12:35:37.747Z,27.40
2022-11-14T12:38:20.485Z,27.40
2022-11-14T12:41:01.938Z,27.40
2022-11-14T12:43:41.121Z,27.40
2022-11-14T12:46:15.069Z,27.30
2022-11-14T12:48:46.923Z,27.30
2022-11-14T12:51:28.410Z,27.30
2022-11-14T12:54:00.547Z,27.30
2022-11-14T12:56:32.526Z,27.20
2022-11-14T12:59:38.743Z,27.20
2022-11-14T13:02:36.772Z,27.20
2022-11-14T13:05:49.030Z,27.10
2022-11-14T13:09:08.575Z,27.10
2022-11-14T13:12:04.167Z,27.10
2022-11-14T13:15:11.670Z,27.00
2022-11-14T13:17:59.835Z,27.00
2022-11-14T13:20:56.196Z,27.00
2022-11-14T13:23:28.636Z,27.00
2022-11-14T13:26:13.346Z,27.00
2022-11-14T13:28:54.105Z,27.00
2022-11-14T13:31:38.679Z,26.90
2022-11-14T13:34:53.587Z,26.90
2022-11-14T13:38:02.614Z,26.90
2022-11-14T13:41:00.426Z,26.90
2022-11-14T13:44:03.364Z,26.90
2022-11-14T13:47:03.082Z,26.80
2022-11-14T13:50:18.259Z,26.80
2022-11-14T13:52:50.220Z,26.80
2022-11-14T13:55:29.704Z,26.80
2022-11-14T13:58:32.085Z,26.80
2022-11-14T14:01:23.315Z,26.80
2022-11-14T14:04:11.719Z,26.80
2022-11-14T14:06:58.143Z,26.80
2022-11-14T14:09:32.297Z,26.70
2022-11-14T14:12:32.130Z,26.80
2022-11-14T14:15:28.955Z,26.70
2022-11-14T14:18:29.498Z,26.80
2022-11-14T14:21:23.217Z,26.80
2022-11-14T14:24:16.423Z,26.80
2022-11-14T14:27:25.568Z,26.80
2022-11-14T14:30:14.110Z,26.80
2022-11-14T14:32:44.091Z,26.80
2022-11-14T14:35:53.041Z,26.80
2022-11-14T14:38:28.906Z,26.80
2022-11-14T14:40:58.916Z,26.80
2022-11-14T14:43:38.068Z,26.80
2022-11-14T14:46:07.392Z,26.80
2022-11-14T14:48:43.486Z,26.80
2022-11-14T14:51:16.333Z,26.80
2022-11-14T14:53:54.999Z,26.80
2022-11-14T14:56:26.452Z,26.70
2022-11-14T14:58:56.252Z,26.70
2022-11-14T15:01:37.269Z,26.70
2022-11-14T15:04:16.813Z,26.70
2022-11-14T15:06:49.081Z,26.70
2022-11-14T15:09:32.860Z,26.70
2022-11-14T15:12:03.893Z,26.60
2022-11-14T15:14:40.101Z,26.60
2022-11-14T15:17:10.854Z,26.60
2022-11-14T15:19:47.299Z,26.60
2022-11-14T15:22:19.421Z,26.60
2022-11-14T15:25:18.177Z,26.50
2022-11-14T15:28:01.376Z,26.50
2022-11-14T15:30:35.776Z,26.50
2022-11-14T15:33:08.423Z,26.50
2022-11-14T15:35:40.511Z,26.50
2022-11-14T15:38:42.641Z,26.50
2022-11-14T15:41:29.055Z,26.40
2022-11-14T15:44:06.483Z,26.40
2022-11-14T15:46:47.502Z,26.40
2022-11-14T15:49:16.514Z,26.40
2022-11-14T15:52:03.824Z,26.40
2022-11-14T15:54:38.736Z,26.40
2022-11-14T15:57:18.362Z,26.40
2022-11-14T15:59:47.562Z,26.40
2022-11-14T16:02:37.101Z,26.40
2022-11-14T16:05:07.845Z,26.40
2022-11-14T16:07:37.153Z,26.40
2022-11-14T16:10:18.571Z,26.40
2022-11-14T16:12:52.158Z,26.40
2022-11-14T16:15:23.130Z,26.40
2022-11-14T16:17:52.827Z,26.30
2022-11-14T16:20:34.506Z,26.30
2022-11-14T16:23:06.255Z,26.30
2022-11-14T16:25:35.753Z,26.40
2022-11-14T16:28:04.919Z,26.40
2022-11-14T16:30:34.190Z,26.40
2022-11-14T16:33:03.424Z,26.40
2022-11-14T16:35:32.756Z,26.30
2022-11-14T16:38:02.086Z,26.30
2022-11-14T16:40:31.237Z,26.30
2022-11-14T16:43:02.297Z,26.30
2022-11-14T16:45:31.558Z,26.30
2022-11-14T16:48:00.890Z,26.30
2022-11-14T16:50:30.093Z,26.30
2022-11-14T16:52:59.237Z,26.30
2022-11-14T16:55:28.397Z,26.30
2022-11-14T16:57:57.584Z,26.20
2022-11-14T17:00:26.826Z,26.30
2022-11-14T17:02:56.778Z,26.30
2022-11-14T17:05:26.048Z,26.30
2022-11-14T17:07:57.855Z,26.30
2022-11-14T17:10:27.005Z,26.30
2022-11-14T17:12:56.167Z,26.30
2022-11-14T17:15:25.361Z,26.30
2022-11-14T17:17:54.489Z,26.30
2022-11-14T17:20:23.623Z,26.20
2022-11-14T17:22:52.877Z,26.20
2022-11-14T17:25:22.458Z,26.20
2022-11-14T17:27:51.840Z,26.10
2022-11-14T17:30:21.972Z,26.10
2022-11-14T17:32:56.180Z,26.00
2022-11-14T17:35:25.911Z,26.00
2022-11-14T17:37:59.936Z,25.90
2022-11-14T17:40:29.693Z,25.90
2022-11-14T17:42:58.840Z,25.90
2022-11-14T17:45:27.993Z,25.90
2022-11-14T17:47:57.211Z,25.90
2022-11-14T17:50:26.385Z,25.90
2022-11-14T17:52:55.536Z,25.90
2022-11-14T17:55:24.736Z,25.90
2022-11-14T17:57:54.183Z,25.90
2022-11-14T18:00:23.462Z,25.90
2022-11-14T18:02:53.336Z,25.80
2022-11-14T18:05:23.173Z,25.80
2022-11-14T18:07:52.385Z,25.90
2022-11-14T18:10:21.673Z,25.90
2022-11-14T18:12:50.870Z,25.90
2022-11-14T18:15:22.686Z,25.90
2022-11-14T18:17:55.844Z,25.90
2022-11-14T18:20:25.184Z,25.90
2022-11-14T18:22:54.381Z,25.90
2022-11-14T18:25:23.502Z,25.90
2022-11-14T18:27:53.378Z,25.90
2022-11-14T18:33:12.770Z,25.90
2022-11-14T18:35:42.418Z,25.90
2022-11-14T18:38:13.253Z,25.90
2022-11-14T18:40:46.020Z,25.90
2022-11-14T18:43:17.128Z,25.90
2022-11-14T18:45:46.905Z,25.90
2022-11-14T18:48:16.776Z,25.90
2022-11-14T18:50:46.718Z,25.90
2022-11-14T18:53:15.793Z,25.90
2022-11-14T18:56:21.233Z,25.90
2022-11-14T18:58:57.958Z,25.80
2022-11-14T19:01:30.890Z,25.80
2022-11-14T19:04:09.354Z,25.80
2022-11-14T19:06:40.208Z,25.80
2022-11-14T19:09:14.532Z,25.80
2022-11-14T19:12:03.209Z,25.80
2022-11-14T19:14:32.410Z,25.80
2022-11-14T19:17:01.872Z,25.80
2022-11-14T19:19:31.683Z,25.80
2022-11-14T19:22:00.888Z,25.80
2022-11-14T19:24:30.055Z,25.80
2022-11-14T19:26:59.402Z,25.80
2022-11-14T19:29:32.587Z,25.80
2022-11-14T19:32:02.380Z,25.80
2022-11-14T19:34:31.623Z,25.80
2022-11-14T19:37:01.392Z,25.80
2022-11-14T19:39:31.452Z,25.80
2022-11-14T19:42:00.730Z,25.80
2022-11-14T19:44:29.925Z,25.80
2022-11-14T19:46:59.080Z,25.80
2022-11-14T19:49:28.290Z,25.90
2022-11-14T19:51:57.505Z,25.90
2022-11-14T19:54:26.639Z,25.90
2022-11-14T19:56:55.782Z,25.90
2022-11-14T19:59:28.898Z,25.90
2022-11-14T20:01:58.943Z,25.90
2022-11-14T20:04:30.782Z,25.90
2022-11-14T20:07:02.476Z,25.90
2022-11-14T20:09:31.625Z,25.90
2022-11-14T20:12:00.800Z,25.80
2022-11-14T20:14:29.910Z,25.80
2022-11-14T20:16:59.040Z,25.80
2022-11-14T20:19:28.583Z,25.80
2022-11-14T20:21:57.687Z,25.80
2022-11-14T20:24:26.775Z,25.70
2022-11-14T20:26:55.915Z,25.70
2022-11-14T20:29:25.130Z,25.70
2022-11-14T20:31:54.303Z,25.70
2022-11-14T20:34:23.910Z,25.70
2022-11-14T20:39:42.128Z,25.60
2022-11-14T20:42:11.279Z,25.60
2022-11-14T20:44:40.481Z,25.60
2022-11-14T20:47:11.218Z,25.60
2022-11-14T20:49:40.541Z,25.60
2022-11-14T20:52:09.641Z,25.60
2022-11-14T20:54:38.739Z,25.50
2022-11-14T20:57:07.826Z,25.50
2022-11-14T20:59:36.959Z,25.50
2022-11-14T21:02:07.146Z,25.40
2022-11-14T21:04:36.416Z,25.40
2022-11-14T21:07:05.592Z,25.40
2022-11-14T21:09:34.763Z,25.30
2022-11-14T21:12:03.935Z,25.30
2022-11-14T21:14:33.082Z,25.30
2022-11-14T21:17:02.264Z,25.30
2022-11-14T21:19:32.960Z,25.30
2022-11-14T21:22:02.115Z,25.30
2022-11-14T21:24:31.499Z,25.20
2022-11-14T21:27:01.887Z,25.20
2022-11-14T21:29:31.108Z,25.20
2022-11-14T21:32:00.299Z,25.10
2022-11-14T21:34:29.424Z,25.10
2022-11-14T21:36:59.728Z,25.10
2022-11-14T21:39:28.832Z,25.10
2022-11-14T21:41:57.979Z,25.10
2022-11-14T21:44:27.150Z,25.10
2022-11-14T21:46:56.398Z,25.00
2022-11-14T21:49:25.630Z,25.00
2022-11-14T21:51:54.838Z,25.00
2022-11-14T21:54:24.003Z,25.00
2022-11-14T21:56:53.253Z,25.00
2022-11-14T21:59:26.691Z,24.90
2022-11-14T22:02:15.355Z,25.00
2022-11-14T22:04:45.003Z,24.90
2022-11-14T22:07:14.194Z,24.90
2022-11-14T22:09:45.540Z,24.90
2022-11-14T22:12:14.903Z,24.80
2022-11-14T22:14:44.051Z,24.80
2022-11-14T22:17:13.236Z,24.70
2022-11-14T22:19:42.440Z,24.70
2022-11-14T22:22:11.637Z,24.70
2022-11-14T22:24:40.845Z,24.60
2022-11-14T22:27:09.999Z,24.60
2022-11-14T22:29:39.547Z,24.60
2022-11-14T22:32:08.728Z,24.50
2022-11-14T22:34:38.291Z,24.40
2022-11-14T22:37:07.458Z,24.40
2022-11-14T22:39:37.061Z,24.40
2022-11-14T22:42:06.322Z,24.40
2022-11-14T22:44:35.444Z,24.30
2022-11-14T22:47:04.621Z,24.30
2022-11-14T22:49:33.761Z,24.30
2022-11-14T22:52:02.934Z,24.30
2022-11-14T22:54:32.115Z,24.30
2022-11-14T22:57:01.316Z,24.30
2022-11-14T22:59:30.560Z,24.30
2022-11-14T23:02:00.387Z,24.30
2022-11-14T23:04:30.087Z,24.30
2022-11-14T23:06:59.271Z,24.30
2022-11-14T23:09:30.772Z,24.30
2022-11-14T23:11:59.889Z,24.30
2022-11-14T23:14:28.958Z,24.30
2022-11-14T23:16:58.270Z,24.30
2022-11-14T23:19:27.387Z,24.30
2022-11-14T23:21:56.540Z,24.40
2022-11-14T23:24:25.609Z,24.40
2022-11-14T23:26:56.088Z,24.40
2022-11-14T23:29:25.333Z,24.40
2022-11-14T23:31:54.526Z,24.40
2022-11-14T23:34:23.624Z,24.40
2022-11-14T23:36:52.702Z,24.40
2022-11-14T23:39:21.809Z,24.40
2022-11-14T23:41:50.929Z,24.40
2022-11-14T23:44:19.987Z,24.40
2022-11-14T23:46:49.091Z,24.40
2022-11-14T23:49:18.148Z,24.40
2022-11-14T23:51:47.283Z,24.40
2022-11-14T23:54:16.396Z,24.50
2022-11-14T23:56:45.797Z,24.50
2022-11-14T23:59:14.955Z,24.50
